Aviation Digital Data Service (ADDS)

Output produced by METARs form (1558 UTC 30 October 2020)
found at http://www.aviationweather.gov/metar/data/
 
ESTA 301550Z 10009KT 9999 FEW012 BKN050 09/08 Q1013
TAF ESTA 301401Z 3015/3020 12010KT 6000 SCT008 
     TEMPO 3015/3020 3000 BR -DZ BKN006